sensor_id;sensor_type;location;lat;lon;timestamp;temperature;humidity
39889;DHT22;25563;50.844;4.308;2024-03-08T00:01:12;7.70;92.30
39889;DHT22;25563;50.844;4.308;2024-03-08T00:03:39;7.70;92.30
39889;DHT22;25563;50.844;4.308;2024-03-08T00:06:06;7.70;92.30
39889;DHT22;25563;50.844;4.308;2024-03-08T00:08:31;7.70;92.30
39889;DHT22;25563;50.844;4.308;2024-03-08T00:10:57;7.70;92.30
39889;DHT22;25563;50.844;4.308;2024-03-08T00:13:23;7.60;92.40
39889;DHT22;25563;50.844;4.308;2024-03-08T00:15:50;7.50;92.40
39889;DHT22;25563;50.844;4.308;2024-03-08T00:18:16;7.50;92.50
39889;DHT22;25563;50.844;4.308;2024-03-08T00:20:42;7.50;92.40
39889;DHT22;25563;50.844;4.308;2024-03-08T00:23:09;7.50;92.40
39889;DHT22;25563;50.844;4.308;2024-03-08T00:25:37;7.30;92.40
39889;DHT22;25563;50.844;4.308;2024-03-08T00:28:03;7.30;92.40
39889;DHT22;25563;50.844;4.308;2024-03-08T00:30:31;7.20;92.60
39889;DHT22;25563;50.844;4.308;2024-03-08T00:32:57;7.10;92.60
39889;DHT22;25563;50.844;4.308;2024-03-08T00:35:23;7.10;92.50
39889;DHT22;25563;50.844;4.308;2024-03-08T00:37:48;7.20;92.60
39889;DHT22;25563;50.844;4.308;2024-03-08T00:40:14;7.00;92.40
39889;DHT22;25563;50.844;4.308;2024-03-08T00:42:40;7.20;92.50
39889;DHT22;25563;50.844;4.308;2024-03-08T00:45:08;7.20;92.40
39889;DHT22;25563;50.844;4.308;2024-03-08T00:47:33;7.20;92.30
39889;DHT22;25563;50.844;4.308;2024-03-08T00:50:00;7.10;92.40
39889;DHT22;25563;50.844;4.308;2024-03-08T00:52:29;7.10;92.40
39889;DHT22;25563;50.844;4.308;2024-03-08T00:54:55;7.10;92.40
39889;DHT22;25563;50.844;4.308;2024-03-08T00:57:21;7.00;92.30
39889;DHT22;25563;50.844;4.308;2024-03-08T00:59:47;7.00;92.30
39889;DHT22;25563;50.844;4.308;2024-03-08T01:02:13;6.90;92.50
39889;DHT22;25563;50.844;4.308;2024-03-08T01:04:40;7.00;92.30
39889;DHT22;25563;50.844;4.308;2024-03-08T01:07:05;6.90;92.30
39889;DHT22;25563;50.844;4.308;2024-03-08T01:09:31;6.90;92.40
39889;DHT22;25563;50.844;4.308;2024-03-08T01:11:57;6.80;92.50
39889;DHT22;25563;50.844;4.308;2024-03-08T01:14:24;6.80;92.50
39889;DHT22;25563;50.844;4.308;2024-03-08T01:16:55;6.80;92.50
39889;DHT22;25563;50.844;4.308;2024-03-08T01:19:21;6.80;92.50
39889;DHT22;25563;50.844;4.308;2024-03-08T01:21:47;6.70;92.60
39889;DHT22;25563;50.844;4.308;2024-03-08T01:24:13;6.70;92.60
39889;DHT22;25563;50.844;4.308;2024-03-08T01:26:39;6.70;92.60
39889;DHT22;25563;50.844;4.308;2024-03-08T01:29:05;6.80;92.40
39889;DHT22;25563;50.844;4.308;2024-03-08T01:31:31;6.70;92.30
39889;DHT22;25563;50.844;4.308;2024-03-08T01:33:59;6.70;92.40
39889;DHT22;25563;50.844;4.308;2024-03-08T01:36:26;6.80;92.20
39889;DHT22;25563;50.844;4.308;2024-03-08T01:38:52;6.80;92.20
39889;DHT22;25563;50.844;4.308;2024-03-08T01:41:18;6.80;92.10
39889;DHT22;25563;50.844;4.308;2024-03-08T01:43:45;6.80;92.20
39889;DHT22;25563;50.844;4.308;2024-03-08T01:46:14;6.80;92.20
39889;DHT22;25563;50.844;4.308;2024-03-08T01:48:42;6.80;92.10
39889;DHT22;25563;50.844;4.308;2024-03-08T01:51:08;6.70;92.10
39889;DHT22;25563;50.844;4.308;2024-03-08T01:53:34;6.50;92.30
39889;DHT22;25563;50.844;4.308;2024-03-08T01:56:01;6.60;92.50
39889;DHT22;25563;50.844;4.308;2024-03-08T01:58:29;6.60;92.30
39889;DHT22;25563;50.844;4.308;2024-03-08T02:00:56;6.60;92.30
39889;DHT22;25563;50.844;4.308;2024-03-08T02:03:23;6.70;92.30
39889;DHT22;25563;50.844;4.308;2024-03-08T02:05:49;6.70;92.30
39889;DHT22;25563;50.844;4.308;2024-03-08T02:08:17;6.70;92.20
39889;DHT22;25563;50.844;4.308;2024-03-08T02:10:44;6.60;92.20
39889;DHT22;25563;50.844;4.308;2024-03-08T02:13:10;6.70;92.20
39889;DHT22;25563;50.844;4.308;2024-03-08T02:16:03;6.60;92.20
39889;DHT22;25563;50.844;4.308;2024-03-08T02:18:30;6.40;92.40
39889;DHT22;25563;50.844;4.308;2024-03-08T02:21:02;6.40;92.40
39889;DHT22;25563;50.844;4.308;2024-03-08T02:23:29;6.40;92.50
39889;DHT22;25563;50.844;4.308;2024-03-08T02:25:56;6.40;92.50
39889;DHT22;25563;50.844;4.308;2024-03-08T02:28:23;6.40;92.40
39889;DHT22;25563;50.844;4.308;2024-03-08T02:30:49;6.30;92.50
39889;DHT22;25563;50.844;4.308;2024-03-08T02:33:22;6.30;92.50
39889;DHT22;25563;50.844;4.308;2024-03-08T02:35:49;6.30;92.30
39889;DHT22;25563;50.844;4.308;2024-03-08T02:38:16;6.20;92.50
39889;DHT22;25563;50.844;4.308;2024-03-08T02:40:43;6.10;92.70
39889;DHT22;25563;50.844;4.308;2024-03-08T02:43:10;6.20;92.60
39889;DHT22;25563;50.844;4.308;2024-03-08T02:45:37;6.10;92.60
39889;DHT22;25563;50.844;4.308;2024-03-08T02:48:04;6.10;92.50
39889;DHT22;25563;50.844;4.308;2024-03-08T02:50:32;6.10;92.50
39889;DHT22;25563;50.844;4.308;2024-03-08T02:52:58;6.20;92.40
39889;DHT22;25563;50.844;4.308;2024-03-08T02:55:24;6.10;92.50
39889;DHT22;25563;50.844;4.308;2024-03-08T02:57:52;6.10;92.50
39889;DHT22;25563;50.844;4.308;2024-03-08T03:00:18;6.10;92.50
39889;DHT22;25563;50.844;4.308;2024-03-08T03:02:45;6.00;92.50
39889;DHT22;25563;50.844;4.308;2024-03-08T03:05:12;6.00;92.50
39889;DHT22;25563;50.844;4.308;2024-03-08T03:07:38;6.00;92.60
39889;DHT22;25563;50.844;4.308;2024-03-08T03:10:04;6.00;92.60
39889;DHT22;25563;50.844;4.308;2024-03-08T03:12:31;6.10;92.40
39889;DHT22;25563;50.844;4.308;2024-03-08T03:14:58;6.10;92.30
39889;DHT22;25563;50.844;4.308;2024-03-08T03:17:24;6.10;92.30
39889;DHT22;25563;50.844;4.308;2024-03-08T03:19:50;6.10;92.20
39889;DHT22;25563;50.844;4.308;2024-03-08T03:22:19;6.00;92.30
39889;DHT22;25563;50.844;4.308;2024-03-08T03:24:45;6.00;92.30
39889;DHT22;25563;50.844;4.308;2024-03-08T03:27:15;5.80;92.40
39889;DHT22;25563;50.844;4.308;2024-03-08T03:29:41;5.80;92.60
39889;DHT22;25563;50.844;4.308;2024-03-08T03:32:15;5.70;92.80
39889;DHT22;25563;50.844;4.308;2024-03-08T03:34:41;5.70;92.90
39889;DHT22;25563;50.844;4.308;2024-03-08T03:37:09;5.70;92.70
39889;DHT22;25563;50.844;4.308;2024-03-08T03:39:38;5.80;92.60
39889;DHT22;25563;50.844;4.308;2024-03-08T03:42:19;5.80;92.60
39889;DHT22;25563;50.844;4.308;2024-03-08T03:44:47;5.70;92.60
39889;DHT22;25563;50.844;4.308;2024-03-08T03:47:14;5.80;92.50
39889;DHT22;25563;50.844;4.308;2024-03-08T03:49:44;5.70;92.60
39889;DHT22;25563;50.844;4.308;2024-03-08T03:52:10;5.70;92.70
39889;DHT22;25563;50.844;4.308;2024-03-08T03:54:36;5.60;92.60
39889;DHT22;25563;50.844;4.308;2024-03-08T03:57:02;5.60;92.70
39889;DHT22;25563;50.844;4.308;2024-03-08T03:59:28;5.50;92.80
39889;DHT22;25563;50.844;4.308;2024-03-08T04:01:54;5.50;92.90
39889;DHT22;25563;50.844;4.308;2024-03-08T04:04:21;5.50;93.00
39889;DHT22;25563;50.844;4.308;2024-03-08T04:06:47;5.60;92.80
39889;DHT22;25563;50.844;4.308;2024-03-08T04:09:13;5.60;92.70
39889;DHT22;25563;50.844;4.308;2024-03-08T04:11:39;5.50;92.80
39889;DHT22;25563;50.844;4.308;2024-03-08T04:14:05;5.60;92.70
39889;DHT22;25563;50.844;4.308;2024-03-08T04:16:32;5.70;92.50
39889;DHT22;25563;50.844;4.308;2024-03-08T04:18:58;5.60;92.60
39889;DHT22;25563;50.844;4.308;2024-03-08T04:21:24;5.50;92.80
39889;DHT22;25563;50.844;4.308;2024-03-08T04:23:50;5.40;93.00
39889;DHT22;25563;50.844;4.308;2024-03-08T04:26:16;5.50;93.00
39889;DHT22;25563;50.844;4.308;2024-03-08T04:28:41;5.30;93.00
39889;DHT22;25563;50.844;4.308;2024-03-08T04:31:08;5.30;93.20
39889;DHT22;25563;50.844;4.308;2024-03-08T04:33:33;5.30;93.10
39889;DHT22;25563;50.844;4.308;2024-03-08T04:36:01;5.20;93.20
39889;DHT22;25563;50.844;4.308;2024-03-08T04:38:30;5.20;93.40
39889;DHT22;25563;50.844;4.308;2024-03-08T04:40:56;5.20;93.40
39889;DHT22;25563;50.844;4.308;2024-03-08T04:43:23;5.40;93.00
39889;DHT22;25563;50.844;4.308;2024-03-08T04:45:52;4.10;92.80
39889;DHT22;25563;50.844;4.308;2024-03-08T04:48:19;5.20;93.30
39889;DHT22;25563;50.844;4.308;2024-03-08T04:50:46;5.00;93.90
39889;DHT22;25563;50.844;4.308;2024-03-08T04:53:11;4.90;93.80
39889;DHT22;25563;50.844;4.308;2024-03-08T04:55:37;4.80;93.90
39889;DHT22;25563;50.844;4.308;2024-03-08T04:58:04;4.90;93.90
39889;DHT22;25563;50.844;4.308;2024-03-08T05:00:31;5.00;93.80
39889;DHT22;25563;50.844;4.308;2024-03-08T05:02:58;5.00;93.80
39889;DHT22;25563;50.844;4.308;2024-03-08T05:05:24;4.80;94.10
39889;DHT22;25563;50.844;4.308;2024-03-08T05:07:51;4.80;94.10
39889;DHT22;25563;50.844;4.308;2024-03-08T05:10:17;4.80;94.10
39889;DHT22;25563;50.844;4.308;2024-03-08T05:12:43;4.90;93.90
39889;DHT22;25563;50.844;4.308;2024-03-08T05:15:09;5.00;93.80
39889;DHT22;25563;50.844;4.308;2024-03-08T05:17:35;5.00;93.70
39889;DHT22;25563;50.844;4.308;2024-03-08T05:20:02;4.90;93.90
39889;DHT22;25563;50.844;4.308;2024-03-08T05:22:29;5.00;93.60
39889;DHT22;25563;50.844;4.308;2024-03-08T05:24:55;4.80;94.00
39889;DHT22;25563;50.844;4.308;2024-03-08T05:27:21;4.80;94.20
39889;DHT22;25563;50.844;4.308;2024-03-08T05:29:46;5.00;93.90
39889;DHT22;25563;50.844;4.308;2024-03-08T05:32:12;4.90;93.90
39889;DHT22;25563;50.844;4.308;2024-03-08T05:34:38;4.80;94.00
39889;DHT22;25563;50.844;4.308;2024-03-08T05:37:04;4.80;94.00
39889;DHT22;25563;50.844;4.308;2024-03-08T05:39:30;4.90;94.10
39889;DHT22;25563;50.844;4.308;2024-03-08T05:41:56;4.80;94.00
39889;DHT22;25563;50.844;4.308;2024-03-08T05:44:22;4.70;94.10
39889;DHT22;25563;50.844;4.308;2024-03-08T05:46:48;4.80;94.20
39889;DHT22;25563;50.844;4.308;2024-03-08T05:49:14;4.70;94.20
39889;DHT22;25563;50.844;4.308;2024-03-08T05:51:40;4.70;94.30
39889;DHT22;25563;50.844;4.308;2024-03-08T05:54:08;4.70;94.40
39889;DHT22;25563;50.844;4.308;2024-03-08T05:56:36;4.70;94.30
39889;DHT22;25563;50.844;4.308;2024-03-08T05:59:02;4.90;94.10
39889;DHT22;25563;50.844;4.308;2024-03-08T06:01:29;4.70;94.10
39889;DHT22;25563;50.844;4.308;2024-03-08T06:03:55;4.70;94.20
39889;DHT22;25563;50.844;4.308;2024-03-08T06:06:26;4.80;94.20
39889;DHT22;25563;50.844;4.308;2024-03-08T06:08:52;4.70;94.30
39889;DHT22;25563;50.844;4.308;2024-03-08T06:11:19;4.60;94.30
39889;DHT22;25563;50.844;4.308;2024-03-08T06:13:46;4.80;94.10
39889;DHT22;25563;50.844;4.308;2024-03-08T06:16:12;5.00;94.00
39889;DHT22;25563;50.844;4.308;2024-03-08T06:18:38;4.80;94.00
39889;DHT22;25563;50.844;4.308;2024-03-08T06:21:07;4.80;93.90
39889;DHT22;25563;50.844;4.308;2024-03-08T06:23:38;4.80;94.00
39889;DHT22;25563;50.844;4.308;2024-03-08T06:26:13;4.80;94.10
39889;DHT22;25563;50.844;4.308;2024-03-08T06:28:38;4.80;94.20
39889;DHT22;25563;50.844;4.308;2024-03-08T06:31:04;4.70;94.20
39889;DHT22;25563;50.844;4.308;2024-03-08T06:33:30;4.70;94.30
39889;DHT22;25563;50.844;4.308;2024-03-08T06:35:58;4.80;94.30
39889;DHT22;25563;50.844;4.308;2024-03-08T06:38:24;4.70;94.30
39889;DHT22;25563;50.844;4.308;2024-03-08T06:40:50;4.70;94.30
39889;DHT22;25563;50.844;4.308;2024-03-08T06:43:17;4.70;94.50
39889;DHT22;25563;50.844;4.308;2024-03-08T06:45:44;4.70;94.50
39889;DHT22;25563;50.844;4.308;2024-03-08T06:48:19;4.60;94.50
39889;DHT22;25563;50.844;4.308;2024-03-08T06:50:46;4.60;94.70
39889;DHT22;25563;50.844;4.308;2024-03-08T06:53:13;4.70;94.50
39889;DHT22;25563;50.844;4.308;2024-03-08T06:55:43;4.70;94.50
39889;DHT22;25563;50.844;4.308;2024-03-08T06:58:10;4.80;94.50
39889;DHT22;25563;50.844;4.308;2024-03-08T07:00:36;4.90;94.30
39889;DHT22;25563;50.844;4.308;2024-03-08T07:03:02;4.80;94.40
39889;DHT22;25563;50.844;4.308;2024-03-08T07:05:29;4.80;94.30
39889;DHT22;25563;50.844;4.308;2024-03-08T07:07:55;4.90;94.10
39889;DHT22;25563;50.844;4.308;2024-03-08T07:10:22;4.90;94.40
39889;DHT22;25563;50.844;4.308;2024-03-08T07:12:50;5.20;93.90
39889;DHT22;25563;50.844;4.308;2024-03-08T07:15:17;5.10;93.90
39889;DHT22;25563;50.844;4.308;2024-03-08T07:17:45;5.10;93.70
39889;DHT22;25563;50.844;4.308;2024-03-08T07:20:11;5.20;93.80
39889;DHT22;25563;50.844;4.308;2024-03-08T07:22:39;5.60;93.10
39889;DHT22;25563;50.844;4.308;2024-03-08T07:25:05;5.90;92.50
39889;DHT22;25563;50.844;4.308;2024-03-08T07:27:54;5.50;92.90
39889;DHT22;25563;50.844;4.308;2024-03-08T07:30:26;5.40;93.20
39889;DHT22;25563;50.844;4.308;2024-03-08T07:33:12;5.20;93.50
39889;DHT22;25563;50.844;4.308;2024-03-08T07:35:41;5.10;93.80
39889;DHT22;25563;50.844;4.308;2024-03-08T07:38:10;5.00;94.00
39889;DHT22;25563;50.844;4.308;2024-03-08T07:40:38;5.10;93.70
39889;DHT22;25563;50.844;4.308;2024-03-08T07:43:07;5.30;93.70
39889;DHT22;25563;50.844;4.308;2024-03-08T07:45:33;5.30;93.90
39889;DHT22;25563;50.844;4.308;2024-03-08T07:47:58;5.20;93.70
39889;DHT22;25563;50.844;4.308;2024-03-08T07:50:24;5.10;93.80
39889;DHT22;25563;50.844;4.308;2024-03-08T07:52:50;5.10;94.00
39889;DHT22;25563;50.844;4.308;2024-03-08T07:55:16;5.20;94.00
39889;DHT22;25563;50.844;4.308;2024-03-08T07:57:42;5.30;93.80
39889;DHT22;25563;50.844;4.308;2024-03-08T08:00:11;5.30;93.60
39889;DHT22;25563;50.844;4.308;2024-03-08T08:02:43;5.40;93.50
39889;DHT22;25563;50.844;4.308;2024-03-08T08:05:11;5.60;93.50
39889;DHT22;25563;50.844;4.308;2024-03-08T08:07:37;5.80;92.80
39889;DHT22;25563;50.844;4.308;2024-03-08T08:10:02;5.90;92.80
39889;DHT22;25563;50.844;4.308;2024-03-08T08:12:28;6.00;92.70
39889;DHT22;25563;50.844;4.308;2024-03-08T08:14:54;6.10;92.30
39889;DHT22;25563;50.844;4.308;2024-03-08T08:17:21;6.00;92.40
39889;DHT22;25563;50.844;4.308;2024-03-08T08:19:47;6.00;92.60
39889;DHT22;25563;50.844;4.308;2024-03-08T08:22:13;5.90;92.70
39889;DHT22;25563;50.844;4.308;2024-03-08T08:24:39;6.30;92.20
39889;DHT22;25563;50.844;4.308;2024-03-08T08:27:05;6.60;91.70
39889;DHT22;25563;50.844;4.308;2024-03-08T08:29:32;6.40;92.00
39889;DHT22;25563;50.844;4.308;2024-03-08T08:31:58;6.30;92.30
39889;DHT22;25563;50.844;4.308;2024-03-08T08:34:25;6.20;92.20
39889;DHT22;25563;50.844;4.308;2024-03-08T08:36:52;6.20;92.40
39889;DHT22;25563;50.844;4.308;2024-03-08T08:39:18;6.20;92.30
39889;DHT22;25563;50.844;4.308;2024-03-08T08:41:44;6.20;92.40
39889;DHT22;25563;50.844;4.308;2024-03-08T08:44:10;6.50;92.00
39889;DHT22;25563;50.844;4.308;2024-03-08T08:46:38;6.60;91.80
39889;DHT22;25563;50.844;4.308;2024-03-08T08:49:06;7.00;91.20
39889;DHT22;25563;50.844;4.308;2024-03-08T08:51:36;7.20;90.80
39889;DHT22;25563;50.844;4.308;2024-03-08T08:54:02;7.10;91.10
39889;DHT22;25563;50.844;4.308;2024-03-08T08:56:28;6.90;91.20
39889;DHT22;25563;50.844;4.308;2024-03-08T08:58:54;6.90;91.40
39889;DHT22;25563;50.844;4.308;2024-03-08T09:01:20;6.80;91.30
39889;DHT22;25563;50.844;4.308;2024-03-08T09:03:47;7.00;91.20
39889;DHT22;25563;50.844;4.308;2024-03-08T09:06:13;7.20;90.90
39889;DHT22;25563;50.844;4.308;2024-03-08T09:08:42;7.20;91.10
39889;DHT22;25563;50.844;4.308;2024-03-08T09:11:10;7.50;90.30
39889;DHT22;25563;50.844;4.308;2024-03-08T09:13:36;7.60;90.20
39889;DHT22;25563;50.844;4.308;2024-03-08T09:16:03;7.40;90.50
39889;DHT22;25563;50.844;4.308;2024-03-08T09:18:31;8.00;89.40
39889;DHT22;25563;50.844;4.308;2024-03-08T09:20:58;7.90;89.40
39889;DHT22;25563;50.844;4.308;2024-03-08T09:23:23;8.00;89.40
39889;DHT22;25563;50.844;4.308;2024-03-08T09:25:51;8.30;87.80
39889;DHT22;25563;50.844;4.308;2024-03-08T09:28:18;8.60;86.90
39889;DHT22;25563;50.844;4.308;2024-03-08T09:30:44;8.70;86.40
39889;DHT22;25563;50.844;4.308;2024-03-08T09:33:10;8.70;86.10
39889;DHT22;25563;50.844;4.308;2024-03-08T09:35:37;9.00;85.90
39889;DHT22;25563;50.844;4.308;2024-03-08T09:38:03;8.80;85.70
39889;DHT22;25563;50.844;4.308;2024-03-08T09:40:30;8.80;85.40
39889;DHT22;25563;50.844;4.308;2024-03-08T09:42:56;8.90;84.70
39889;DHT22;25563;50.844;4.308;2024-03-08T09:45:25;8.90;85.10
39889;DHT22;25563;50.844;4.308;2024-03-08T09:47:51;9.10;84.90
39889;DHT22;25563;50.844;4.308;2024-03-08T09:50:18;9.10;84.90
39889;DHT22;25563;50.844;4.308;2024-03-08T09:52:47;9.40;83.60
39889;DHT22;25563;50.844;4.308;2024-03-08T09:55:14;9.60;84.00
39889;DHT22;25563;50.844;4.308;2024-03-08T09:57:43;9.70;83.10
39889;DHT22;25563;50.844;4.308;2024-03-08T10:00:31;9.50;83.10
39889;DHT22;25563;50.844;4.308;2024-03-08T10:03:01;9.40;83.50
39889;DHT22;25563;50.844;4.308;2024-03-08T10:05:27;9.50;83.40
39889;DHT22;25563;50.844;4.308;2024-03-08T10:07:53;9.70;82.20
39889;DHT22;25563;50.844;4.308;2024-03-08T10:10:20;9.60;83.00
39889;DHT22;25563;50.844;4.308;2024-03-08T10:12:48;9.90;82.20
39889;DHT22;25563;50.844;4.308;2024-03-08T10:15:15;10.20;81.30
39889;DHT22;25563;50.844;4.308;2024-03-08T10:17:43;9.90;82.20
39889;DHT22;25563;50.844;4.308;2024-03-08T10:20:17;9.70;83.00
39889;DHT22;25563;50.844;4.308;2024-03-08T10:22:43;9.90;82.60
39889;DHT22;25563;50.844;4.308;2024-03-08T10:25:14;10.00;82.20
39889;DHT22;25563;50.844;4.308;2024-03-08T10:27:40;9.70;83.10
39889;DHT22;25563;50.844;4.308;2024-03-08T10:30:19;9.90;82.50
39889;DHT22;25563;50.844;4.308;2024-03-08T10:32:47;10.20;81.70
39889;DHT22;25563;50.844;4.308;2024-03-08T10:35:13;10.60;80.50
39889;DHT22;25563;50.844;4.308;2024-03-08T10:37:51;10.60;80.60
39889;DHT22;25563;50.844;4.308;2024-03-08T10:40:25;10.60;80.70
39889;DHT22;25563;50.844;4.308;2024-03-08T10:42:59;10.70;80.50
39889;DHT22;25563;50.844;4.308;2024-03-08T10:45:34;10.70;80.30
39889;DHT22;25563;50.844;4.308;2024-03-08T10:50:50;10.60;80.50
39889;DHT22;25563;50.844;4.308;2024-03-08T10:53:18;10.40;81.00
39889;DHT22;25563;50.844;4.308;2024-03-08T10:55:46;10.40;81.00
39889;DHT22;25563;50.844;4.308;2024-03-08T10:58:13;10.70;80.70
39889;DHT22;25563;50.844;4.308;2024-03-08T11:00:39;10.50;81.00
39889;DHT22;25563;50.844;4.308;2024-03-08T11:03:05;10.70;80.90
39889;DHT22;25563;50.844;4.308;2024-03-08T11:05:38;10.70;80.60
39889;DHT22;25563;50.844;4.308;2024-03-08T11:08:16;10.80;80.60
39889;DHT22;25563;50.844;4.308;2024-03-08T11:10:51;11.00;80.20
39889;DHT22;25563;50.844;4.308;2024-03-08T11:13:35;11.20;80.00
39889;DHT22;25563;50.844;4.308;2024-03-08T11:16:02;11.10;80.40
39889;DHT22;25563;50.844;4.308;2024-03-08T11:18:35;11.10;80.10
39889;DHT22;25563;50.844;4.308;2024-03-08T11:21:04;11.30;79.90
39889;DHT22;25563;50.844;4.308;2024-03-08T11:23:38;11.30;80.10
39889;DHT22;25563;50.844;4.308;2024-03-08T11:26:25;11.20;80.70
39889;DHT22;25563;50.844;4.308;2024-03-08T11:28:51;11.20;80.70
39889;DHT22;25563;50.844;4.308;2024-03-08T11:31:23;11.40;80.20
39889;DHT22;25563;50.844;4.308;2024-03-08T11:33:49;11.90;78.70
39889;DHT22;25563;50.844;4.308;2024-03-08T11:36:23;12.10;78.20
39889;DHT22;25563;50.844;4.308;2024-03-08T11:38:51;12.00;78.60
39889;DHT22;25563;50.844;4.308;2024-03-08T11:41:24;11.80;79.20
39889;DHT22;25563;50.844;4.308;2024-03-08T11:44:04;12.20;78.30
39889;DHT22;25563;50.844;4.308;2024-03-08T11:46:31;12.50;77.50
39889;DHT22;25563;50.844;4.308;2024-03-08T11:48:56;12.50;77.40
39889;DHT22;25563;50.844;4.308;2024-03-08T11:51:22;12.30;77.90
39889;DHT22;25563;50.844;4.308;2024-03-08T11:53:49;12.80;77.00
39889;DHT22;25563;50.844;4.308;2024-03-08T11:56:18;14.10;75.10
39889;DHT22;25563;50.844;4.308;2024-03-08T11:58:54;16.60;71.40
39889;DHT22;25563;50.844;4.308;2024-03-08T12:01:22;17.40;68.40
39889;DHT22;25563;50.844;4.308;2024-03-08T12:03:59;19.10;66.50
39889;DHT22;25563;50.844;4.308;2024-03-08T12:06:25;21.70;62.60
39889;DHT22;25563;50.844;4.308;2024-03-08T12:08:52;22.30;60.00
39889;DHT22;25563;50.844;4.308;2024-03-08T12:11:19;22.90;58.30
39889;DHT22;25563;50.844;4.308;2024-03-08T12:13:49;22.40;57.70
39889;DHT22;25563;50.844;4.308;2024-03-08T12:16:17;22.00;58.50
39889;DHT22;25563;50.844;4.308;2024-03-08T12:18:47;23.00;57.30
39889;DHT22;25563;50.844;4.308;2024-03-08T12:21:14;23.70;56.70
39889;DHT22;25563;50.844;4.308;2024-03-08T12:23:44;24.30;55.00
39889;DHT22;25563;50.844;4.308;2024-03-08T12:28:40;22.60;55.90
39889;DHT22;25563;50.844;4.308;2024-03-08T12:31:11;23.40;55.20
39889;DHT22;25563;50.844;4.308;2024-03-08T12:34:00;24.00;54.80
39889;DHT22;25563;50.844;4.308;2024-03-08T12:36:26;24.30;54.60
39889;DHT22;25563;50.844;4.308;2024-03-08T12:38:53;24.90;53.60
39889;DHT22;25563;50.844;4.308;2024-03-08T12:41:24;24.80;53.30
39889;DHT22;25563;50.844;4.308;2024-03-08T12:43:49;25.00;52.70
39889;DHT22;25563;50.844;4.308;2024-03-08T12:46:18;25.10;52.30
39889;DHT22;25563;50.844;4.308;2024-03-08T12:48:48;23.80;53.00
39889;DHT22;25563;50.844;4.308;2024-03-08T12:51:14;24.30;53.00
39889;DHT22;25563;50.844;4.308;2024-03-08T12:53:42;25.40;51.90
39889;DHT22;25563;50.844;4.308;2024-03-08T12:56:36;25.60;51.50
39889;DHT22;25563;50.844;4.308;2024-03-08T12:59:04;25.10;51.60
39889;DHT22;25563;50.844;4.308;2024-03-08T13:01:31;24.80;51.50
39889;DHT22;25563;50.844;4.308;2024-03-08T13:04:00;23.90;52.30
39889;DHT22;25563;50.844;4.308;2024-03-08T13:06:28;23.20;53.30
39889;DHT22;25563;50.844;4.308;2024-03-08T13:08:54;24.50;53.20
39889;DHT22;25563;50.844;4.308;2024-03-08T13:11:24;25.10;51.40
39889;DHT22;25563;50.844;4.308;2024-03-08T13:13:50;24.90;51.30
39889;DHT22;25563;50.844;4.308;2024-03-08T13:16:16;24.60;51.90
39889;DHT22;25563;50.844;4.308;2024-03-08T13:18:42;26.00;51.00
39889;DHT22;25563;50.844;4.308;2024-03-08T13:21:09;26.30;50.20
39889;DHT22;25563;50.844;4.308;2024-03-08T13:23:37;26.50;50.20
39889;DHT22;25563;50.844;4.308;2024-03-08T13:26:10;27.10;49.70
39889;DHT22;25563;50.844;4.308;2024-03-08T13:28:46;27.50;49.50
39889;DHT22;25563;50.844;4.308;2024-03-08T13:31:15;28.00;49.10
39889;DHT22;25563;50.844;4.308;2024-03-08T13:33:41;28.90;48.50
39889;DHT22;25563;50.844;4.308;2024-03-08T13:36:12;28.60;47.90
39889;DHT22;25563;50.844;4.308;2024-03-08T13:38:43;28.80;48.10
39889;DHT22;25563;50.844;4.308;2024-03-08T13:41:10;28.40;47.60
39889;DHT22;25563;50.844;4.308;2024-03-08T13:43:46;28.20;47.50
39889;DHT22;25563;50.844;4.308;2024-03-08T13:46:13;26.80;47.90
39889;DHT22;25563;50.844;4.308;2024-03-08T13:48:39;25.90;48.70
39889;DHT22;25563;50.844;4.308;2024-03-08T13:51:07;25.90;49.20
39889;DHT22;25563;50.844;4.308;2024-03-08T13:53:33;25.70;49.00
39889;DHT22;25563;50.844;4.308;2024-03-08T13:56:01;26.20;49.10
39889;DHT22;25563;50.844;4.308;2024-03-08T13:58:29;27.10;48.40
39889;DHT22;25563;50.844;4.308;2024-03-08T14:00:55;27.20;48.50
39889;DHT22;25563;50.844;4.308;2024-03-08T14:03:21;28.20;47.90
39889;DHT22;25563;50.844;4.308;2024-03-08T14:05:49;28.50;47.30
39889;DHT22;25563;50.844;4.308;2024-03-08T14:08:15;28.80;47.30
39889;DHT22;25563;50.844;4.308;2024-03-08T14:10:43;29.10;46.60
39889;DHT22;25563;50.844;4.308;2024-03-08T14:13:10;29.00;46.70
39889;DHT22;25563;50.844;4.308;2024-03-08T14:15:37;28.70;46.10
39889;DHT22;25563;50.844;4.308;2024-03-08T14:18:08;27.30;46.50
39889;DHT22;25563;50.844;4.308;2024-03-08T14:20:35;26.00;47.60
39889;DHT22;25563;50.844;4.308;2024-03-08T14:23:01;26.50;48.00
39889;DHT22;25563;50.844;4.308;2024-03-08T14:25:27;26.90;47.80
39889;DHT22;25563;50.844;4.308;2024-03-08T14:27:55;27.40;47.60
39889;DHT22;25563;50.844;4.308;2024-03-08T14:30:24;27.80;47.00
39889;DHT22;25563;50.844;4.308;2024-03-08T14:33:05;27.70;47.40
39889;DHT22;25563;50.844;4.308;2024-03-08T14:35:37;27.90;47.50
39889;DHT22;25563;50.844;4.308;2024-03-08T14:38:03;28.00;46.60
39889;DHT22;25563;50.844;4.308;2024-03-08T14:40:30;28.20;46.50
39889;DHT22;25563;50.844;4.308;2024-03-08T14:42:57;27.60;46.50
39889;DHT22;25563;50.844;4.308;2024-03-08T14:45:23;27.60;46.50
39889;DHT22;25563;50.844;4.308;2024-03-08T14:47:50;27.20;46.60
39889;DHT22;25563;50.844;4.308;2024-03-08T14:50:23;26.90;47.00
39889;DHT22;25563;50.844;4.308;2024-03-08T14:52:51;26.80;47.20
39889;DHT22;25563;50.844;4.308;2024-03-08T14:55:18;27.00;47.30
39889;DHT22;25563;50.844;4.308;2024-03-08T14:57:50;26.90;46.80
39889;DHT22;25563;50.844;4.308;2024-03-08T15:00:18;27.00;47.20
39889;DHT22;25563;50.844;4.308;2024-03-08T15:02:55;27.10;46.80
39889;DHT22;25563;50.844;4.308;2024-03-08T15:05:22;26.80;47.20
39889;DHT22;25563;50.844;4.308;2024-03-08T15:07:57;26.80;47.20
39889;DHT22;25563;50.844;4.308;2024-03-08T15:10:26;26.60;47.10
39889;DHT22;25563;50.844;4.308;2024-03-08T15:12:54;26.60;47.20
39889;DHT22;25563;50.844;4.308;2024-03-08T15:15:21;26.40;47.10
39889;DHT22;25563;50.844;4.308;2024-03-08T15:17:52;26.50;47.60
39889;DHT22;25563;50.844;4.308;2024-03-08T15:20:22;26.50;47.20
39889;DHT22;25563;50.844;4.308;2024-03-08T15:22:54;26.30;46.90
39889;DHT22;25563;50.844;4.308;2024-03-08T15:25:24;26.40;47.20
39889;DHT22;25563;50.844;4.308;2024-03-08T15:27:53;26.40;47.50
39889;DHT22;25563;50.844;4.308;2024-03-08T15:30:21;26.20;47.50
39889;DHT22;25563;50.844;4.308;2024-03-08T15:32:54;26.00;47.60
39889;DHT22;25563;50.844;4.308;2024-03-08T15:35:23;25.50;47.60
39889;DHT22;25563;50.844;4.308;2024-03-08T15:37:53;24.20;48.50
39889;DHT22;25563;50.844;4.308;2024-03-08T15:40:23;22.30;50.80
39889;DHT22;25563;50.844;4.308;2024-03-08T15:42:55;20.60;53.20
39889;DHT22;25563;50.844;4.308;2024-03-08T15:45:22;19.20;55.10
39889;DHT22;25563;50.844;4.308;2024-03-08T15:47:49;18.30;56.70
39889;DHT22;25563;50.844;4.308;2024-03-08T15:50:15;17.60;58.40